sensor_id;sensor_type;location;lat;lon;timestamp;pressure;altitude;pressure_sealevel;temperature;humidity
38267;BME280;24063;51.794;19.578;2022-07-04T00:00:08;98699.39;;;17.35;91.05
38267;BME280;24063;51.794;19.578;2022-07-04T00:01:30;98695.08;;;17.35;90.93
38267;BME280;24063;51.794;19.578;2022-07-04T00:02:32;98694.73;;;17.34;91.01
38267;BME280;24063;51.794;19.578;2022-07-04T00:03:34;98691.45;;;17.32;91.07
38267;BME280;24063;51.794;19.578;2022-07-04T00:04:36;98693.27;;;17.31;91.10
38267;BME280;24063;51.794;19.578;2022-07-04T00:05:38;98690.98;;;17.29;91.20
38267;BME280;24063;51.794;19.578;2022-07-04T00:06:40;98690.28;;;17.27;91.30
38267;BME280;24063;51.794;19.578;2022-07-04T00:07:44;98690.53;;;17.26;91.46
38267;BME280;24063;51.794;19.578;2022-07-04T00:08:46;98692.20;;;17.24;91.53
38267;BME280;24063;51.794;19.578;2022-07-04T00:09:48;98691.10;;;17.22;91.66
38267;BME280;24063;51.794;19.578;2022-07-04T00:10:50;98695.70;;;17.22;91.79
38267;BME280;24063;51.794;19.578;2022-07-04T00:11:52;98692.90;;;17.22;91.96
38267;BME280;24063;51.794;19.578;2022-07-04T00:12:53;98691.49;;;17.22;91.75
38267;BME280;24063;51.794;19.578;2022-07-04T00:13:55;98692.64;;;17.21;91.84
38267;BME280;24063;51.794;19.578;2022-07-04T00:14:57;98689.40;;;17.22;91.88
38267;BME280;24063;51.794;19.578;2022-07-04T00:15:59;98688.70;;;17.22;91.75
38267;BME280;24063;51.794;19.578;2022-07-04T00:17:00;98686.86;;;17.21;91.74
38267;BME280;24063;51.794;19.578;2022-07-04T00:18:02;98686.30;;;17.19;91.93
38267;BME280;24063;51.794;19.578;2022-07-04T00:19:04;98683.92;;;17.18;92.04
38267;BME280;24063;51.794;19.578;2022-07-04T00:20:07;98687.06;;;17.17;92.08
38267;BME280;24063;51.794;19.578;2022-07-04T00:21:10;98685.98;;;17.15;92.06
38267;BME280;24063;51.794;19.578;2022-07-04T00:22:12;98682.34;;;17.14;92.14
38267;BME280;24063;51.794;19.578;2022-07-04T00:23:13;98683.29;;;17.13;92.24
38267;BME280;24063;51.794;19.578;2022-07-04T00:24:15;98682.74;;;17.12;92.25
38267;BME280;24063;51.794;19.578;2022-07-04T00:25:17;98684.67;;;17.11;92.39
38267;BME280;24063;51.794;19.578;2022-07-04T00:26:19;98684.45;;;17.10;92.36
38267;BME280;24063;51.794;19.578;2022-07-04T00:27:21;98682.80;;;17.10;92.20
38267;BME280;24063;51.794;19.578;2022-07-04T00:28:23;98681.95;;;17.09;92.17
38267;BME280;24063;51.794;19.578;2022-07-04T00:29:24;98682.92;;;17.09;92.11
38267;BME280;24063;51.794;19.578;2022-07-04T00:30:26;98687.13;;;17.07;92.14
38267;BME280;24063;51.794;19.578;2022-07-04T00:31:28;98683.65;;;17.05;92.07
38267;BME280;24063;51.794;19.578;2022-07-04T00:32:30;98685.19;;;17.03;92.24
38267;BME280;24063;51.794;19.578;2022-07-04T00:33:32;98684.08;;;16.99;92.28
38267;BME280;24063;51.794;19.578;2022-07-04T00:34:34;98680.72;;;16.95;92.51
38267;BME280;24063;51.794;19.578;2022-07-04T00:35:35;98684.54;;;16.94;92.62
38267;BME280;24063;51.794;19.578;2022-07-04T00:36:37;98685.98;;;16.91;92.92
38267;BME280;24063;51.794;19.578;2022-07-04T00:37:39;98686.00;;;16.89;93.01
38267;BME280;24063;51.794;19.578;2022-07-04T00:38:40;98683.29;;;16.86;93.03
38267;BME280;24063;51.794;19.578;2022-07-04T00:39:42;98684.27;;;16.84;93.25
38267;BME280;24063;51.794;19.578;2022-07-04T00:40:44;98683.95;;;16.81;93.30
38267;BME280;24063;51.794;19.578;2022-07-04T00:41:46;98681.79;;;16.78;93.56
38267;BME280;24063;51.794;19.578;2022-07-04T00:42:48;98676.98;;;16.76;93.80
38267;BME280;24063;51.794;19.578;2022-07-04T00:44:03;98676.42;;;16.74;93.79
38267;BME280;24063;51.794;19.578;2022-07-04T00:45:14;98672.15;;;16.73;93.86
38267;BME280;24063;51.794;19.578;2022-07-04T00:46:16;98672.24;;;16.71;94.02
38267;BME280;24063;51.794;19.578;2022-07-04T00:47:18;98669.35;;;16.70;94.00
38267;BME280;24063;51.794;19.578;2022-07-04T00:48:20;98670.76;;;16.68;94.24
38267;BME280;24063;51.794;19.578;2022-07-04T00:49:21;98670.81;;;16.68;94.23
38267;BME280;24063;51.794;19.578;2022-07-04T00:50:24;98671.10;;;16.67;94.34
38267;BME280;24063;51.794;19.578;2022-07-04T00:51:27;98670.67;;;16.67;94.33
38267;BME280;24063;51.794;19.578;2022-07-04T00:52:30;98672.19;;;16.65;94.38
38267;BME280;24063;51.794;19.578;2022-07-04T00:53:32;98669.86;;;16.64;94.41
38267;BME280;24063;51.794;19.578;2022-07-04T00:54:34;98667.76;;;16.63;94.51
38267;BME280;24063;51.794;19.578;2022-07-04T00:55:38;98670.69;;;16.62;94.49
38267;BME280;24063;51.794;19.578;2022-07-04T00:56:42;98674.08;;;16.61;94.48
38267;BME280;24063;51.794;19.578;2022-07-04T00:57:44;98674.83;;;16.60;94.59
38267;BME280;24063;51.794;19.578;2022-07-04T00:58:46;98677.17;;;16.60;94.58
38267;BME280;24063;51.794;19.578;2022-07-04T00:59:47;98675.11;;;16.60;94.55
38267;BME280;24063;51.794;19.578;2022-07-04T01:00:50;98672.34;;;16.59;94.64
38267;BME280;24063;51.794;19.578;2022-07-04T01:01:52;98669.20;;;16.58;94.68
38267;BME280;24063;51.794;19.578;2022-07-04T01:02:54;98671.80;;;16.59;94.66
38267;BME280;24063;51.794;19.578;2022-07-04T01:03:56;98672.81;;;16.58;94.83
38267;BME280;24063;51.794;19.578;2022-07-04T01:04:58;98674.52;;;16.57;94.75
38267;BME280;24063;51.794;19.578;2022-07-04T01:06:01;98668.58;;;16.57;94.92
38267;BME280;24063;51.794;19.578;2022-07-04T01:07:04;98669.86;;;16.56;94.86
38267;BME280;24063;51.794;19.578;2022-07-04T01:08:07;98671.36;;;16.55;95.03
38267;BME280;24063;51.794;19.578;2022-07-04T01:09:08;98669.55;;;16.53;95.07
38267;BME280;24063;51.794;19.578;2022-07-04T01:10:10;98669.48;;;16.52;95.13
38267;BME280;24063;51.794;19.578;2022-07-04T01:11:13;98669.19;;;16.51;95.27
38267;BME280;24063;51.794;19.578;2022-07-04T01:12:28;98668.51;;;16.49;95.39
38267;BME280;24063;51.794;19.578;2022-07-04T01:13:30;98668.91;;;16.48;95.38
38267;BME280;24063;51.794;19.578;2022-07-04T01:14:32;98665.69;;;16.48;95.50
38267;BME280;24063;51.794;19.578;2022-07-04T01:15:34;98667.23;;;16.48;95.47
38267;BME280;24063;51.794;19.578;2022-07-04T01:16:35;98666.09;;;16.48;95.54
38267;BME280;24063;51.794;19.578;2022-07-04T01:17:37;98664.57;;;16.47;95.61
38267;BME280;24063;51.794;19.578;2022-07-04T01:18:40;98664.90;;;16.48;95.74
38267;BME280;24063;51.794;19.578;2022-07-04T01:19:42;98665.11;;;16.47;95.67
38267;BME280;24063;51.794;19.578;2022-07-04T01:20:44;98664.09;;;16.45;95.60
38267;BME280;24063;51.794;19.578;2022-07-04T01:21:46;98662.37;;;16.43;95.79
38267;BME280;24063;51.794;19.578;2022-07-04T01:22:48;98664.07;;;16.43;95.83
38267;BME280;24063;51.794;19.578;2022-07-04T01:23:49;98664.98;;;16.42;95.98
38267;BME280;24063;51.794;19.578;2022-07-04T01:24:51;98664.52;;;16.41;96.02
38267;BME280;24063;51.794;19.578;2022-07-04T01:25:53;98663.57;;;16.40;95.94
38267;BME280;24063;51.794;19.578;2022-07-04T01:26:55;98664.66;;;16.38;96.21
38267;BME280;24063;51.794;19.578;2022-07-04T01:27:58;98667.56;;;16.37;96.19
38267;BME280;24063;51.794;19.578;2022-07-04T01:29:01;98669.34;;;16.35;96.39
38267;BME280;24063;51.794;19.578;2022-07-04T01:30:03;98668.05;;;16.34;96.48
38267;BME280;24063;51.794;19.578;2022-07-04T01:31:05;98670.70;;;16.34;96.45
38267;BME280;24063;51.794;19.578;2022-07-04T01:32:08;98668.16;;;16.33;96.50
38267;BME280;24063;51.794;19.578;2022-07-04T01:33:10;98667.86;;;16.31;96.60
38267;BME280;24063;51.794;19.578;2022-07-04T01:34:12;98664.24;;;16.30;96.64
38267;BME280;24063;51.794;19.578;2022-07-04T01:35:14;98666.96;;;16.30;96.75
38267;BME280;24063;51.794;19.578;2022-07-04T01:36:14;98664.80;;;16.30;96.78
38267;BME280;24063;51.794;19.578;2022-07-04T01:37:16;98664.61;;;16.31;96.69
38267;BME280;24063;51.794;19.578;2022-07-04T01:38:18;98666.48;;;16.31;96.70
38267;BME280;24063;51.794;19.578;2022-07-04T01:39:20;98667.13;;;16.30;96.70
38267;BME280;24063;51.794;19.578;2022-07-04T01:40:22;98668.27;;;16.30;96.72
38267;BME280;24063;51.794;19.578;2022-07-04T01:41:23;98666.52;;;16.29;96.78
38267;BME280;24063;51.794;19.578;2022-07-04T01:42:25;98669.23;;;16.27;96.84
38267;BME280;24063;51.794;19.578;2022-07-04T01:43:27;98666.98;;;16.25;96.85
38267;BME280;24063;51.794;19.578;2022-07-04T01:44:29;98666.96;;;16.23;96.89
38267;BME280;24063;51.794;19.578;2022-07-04T01:45:31;98668.95;;;16.23;96.93
38267;BME280;24063;51.794;19.578;2022-07-04T01:46:35;98667.02;;;16.21;96.96
38267;BME280;24063;51.794;19.578;2022-07-04T01:47:38;98667.66;;;16.20;97.03
38267;BME280;24063;51.794;19.578;2022-07-04T01:48:41;98670.08;;;16.19;97.00
38267;BME280;24063;51.794;19.578;2022-07-04T01:49:42;98673.21;;;16.18;97.00
38267;BME280;24063;51.794;19.578;2022-07-04T01:50:44;98670.86;;;16.18;97.28
38267;BME280;24063;51.794;19.578;2022-07-04T01:51:47;98674.89;;;16.19;97.34
38267;BME280;24063;51.794;19.578;2022-07-04T01:52:49;98675.52;;;16.20;97.22
38267;BME280;24063;51.794;19.578;2022-07-04T01:53:50;98670.23;;;16.20;97.06
38267;BME280;24063;51.794;19.578;2022-07-04T01:54:52;98671.50;;;16.19;97.01
38267;BME280;24063;51.794;19.578;2022-07-04T01:55:54;98667.90;;;16.19;97.15
38267;BME280;24063;51.794;19.578;2022-07-04T01:56:56;98666.52;;;16.19;97.00
38267;BME280;24063;51.794;19.578;2022-07-04T01:57:58;98665.27;;;16.19;96.93
38267;BME280;24063;51.794;19.578;2022-07-04T01:59:01;98663.60;;;16.19;96.90
38267;BME280;24063;51.794;19.578;2022-07-04T02:00:08;98659.46;;;16.18;96.89
38267;BME280;24063;51.794;19.578;2022-07-04T02:01:30;98663.11;;;16.18;96.81
38267;BME280;24063;51.794;19.578;2022-07-04T02:02:33;98659.04;;;16.18;96.76
38267;BME280;24063;51.794;19.578;2022-07-04T02:03:35;98659.52;;;16.18;96.87
38267;BME280;24063;51.794;19.578;2022-07-04T02:04:37;98657.89;;;16.18;96.76
38267;BME280;24063;51.794;19.578;2022-07-04T02:05:39;98658.96;;;16.18;96.68
38267;BME280;24063;51.794;19.578;2022-07-04T02:06:41;98657.50;;;16.18;96.73
38267;BME280;24063;51.794;19.578;2022-07-04T02:07:44;98657.84;;;16.20;96.69
38267;BME280;24063;51.794;19.578;2022-07-04T02:08:45;98660.12;;;16.21;96.48
38267;BME280;24063;51.794;19.578;2022-07-04T02:10:06;98656.20;;;16.22;96.48
38267;BME280;24063;51.794;19.578;2022-07-04T02:11:08;98661.66;;;16.22;96.32
38267;BME280;24063;51.794;19.578;2022-07-04T02:12:10;98658.55;;;16.22;96.28
38267;BME280;24063;51.794;19.578;2022-07-04T02:13:31;98661.12;;;16.22;96.17
38267;BME280;24063;51.794;19.578;2022-07-04T02:14:33;98663.27;;;16.21;96.16
38267;BME280;24063;51.794;19.578;2022-07-04T02:15:37;98659.80;;;16.20;96.27
38267;BME280;24063;51.794;19.578;2022-07-04T02:16:39;98662.11;;;16.22;96.15
38267;BME280;24063;51.794;19.578;2022-07-04T02:17:41;98661.36;;;16.21;96.16
38267;BME280;24063;51.794;19.578;2022-07-04T02:18:42;98661.06;;;16.20;96.16
38267;BME280;24063;51.794;19.578;2022-07-04T02:19:44;98661.27;;;16.20;96.01
38267;BME280;24063;51.794;19.578;2022-07-04T02:20:46;98662.98;;;16.20;96.04
38267;BME280;24063;51.794;19.578;2022-07-04T02:21:48;98662.16;;;16.19;96.12
38267;BME280;24063;51.794;19.578;2022-07-04T02:22:49;98661.84;;;16.19;96.16
38267;BME280;24063;51.794;19.578;2022-07-04T02:23:51;98664.25;;;16.21;96.19
38267;BME280;24063;51.794;19.578;2022-07-04T02:24:53;98664.32;;;16.20;96.18
38267;BME280;24063;51.794;19.578;2022-07-04T02:25:55;98661.48;;;16.20;96.16
38267;BME280;24063;51.794;19.578;2022-07-04T02:26:57;98658.08;;;16.19;96.20
38267;BME280;24063;51.794;19.578;2022-07-04T02:27:59;98660.16;;;16.18;96.17
38267;BME280;24063;51.794;19.578;2022-07-04T02:29:01;98660.04;;;16.19;96.20
38267;BME280;24063;51.794;19.578;2022-07-04T02:30:04;98658.95;;;16.19;96.16
38267;BME280;24063;51.794;19.578;2022-07-04T02:31:06;98657.76;;;16.19;96.27
38267;BME280;24063;51.794;19.578;2022-07-04T02:32:08;98657.98;;;16.18;96.32
38267;BME280;24063;51.794;19.578;2022-07-04T02:33:10;98657.70;;;16.19;96.20
38267;BME280;24063;51.794;19.578;2022-07-04T02:34:12;98660.17;;;16.18;96.09
38267;BME280;24063;51.794;19.578;2022-07-04T02:35:13;98659.67;;;16.18;96.16
38267;BME280;24063;51.794;19.578;2022-07-04T02:36:15;98663.27;;;16.18;96.21
38267;BME280;24063;51.794;19.578;2022-07-04T02:37:17;98660.77;;;16.18;96.24
38267;BME280;24063;51.794;19.578;2022-07-04T02:38:19;98660.16;;;16.18;96.29
38267;BME280;24063;51.794;19.578;2022-07-04T02:39:20;98659.66;;;16.19;96.27
38267;BME280;24063;51.794;19.578;2022-07-04T02:40:22;98660.23;;;16.20;96.32
38267;BME280;24063;51.794;19.578;2022-07-04T02:41:24;98655.98;;;16.20;96.36
38267;BME280;24063;51.794;19.578;2022-07-04T02:42:30;98655.42;;;16.20;96.36
38267;BME280;24063;51.794;19.578;2022-07-04T02:43:32;98657.70;;;16.21;96.28
38267;BME280;24063;51.794;19.578;2022-07-04T02:44:34;98657.71;;;16.21;96.12
38267;BME280;24063;51.794;19.578;2022-07-04T02:45:36;98656.20;;;16.20;96.19
38267;BME280;24063;51.794;19.578;2022-07-04T02:46:38;98660.52;;;16.19;96.21
38267;BME280;24063;51.794;19.578;2022-07-04T02:47:39;98660.66;;;16.18;96.21
38267;BME280;24063;51.794;19.578;2022-07-04T02:48:41;98661.14;;;16.16;96.33
38267;BME280;24063;51.794;19.578;2022-07-04T02:49:43;98656.91;;;16.16;96.39
38267;BME280;24063;51.794;19.578;2022-07-04T02:50:45;98661.49;;;16.16;96.37
38267;BME280;24063;51.794;19.578;2022-07-04T02:51:47;98661.52;;;16.15;96.41
38267;BME280;24063;51.794;19.578;2022-07-04T02:52:49;98662.23;;;16.14;96.52
38267;BME280;24063;51.794;19.578;2022-07-04T02:53:51;98660.45;;;16.14;96.61
38267;BME280;24063;51.794;19.578;2022-07-04T02:54:53;98659.67;;;16.14;96.75
38267;BME280;24063;51.794;19.578;2022-07-04T02:55:54;98662.80;;;16.15;96.84
38267;BME280;24063;51.794;19.578;2022-07-04T02:56:56;98664.38;;;16.16;96.71
38267;BME280;24063;51.794;19.578;2022-07-04T02:57:58;98663.40;;;16.15;96.63
38267;BME280;24063;51.794;19.578;2022-07-04T02:59:00;98664.98;;;16.15;96.87
38267;BME280;24063;51.794;19.578;2022-07-04T03:00:02;98663.65;;;16.17;96.86
38267;BME280;24063;51.794;19.578;2022-07-04T03:01:04;98662.75;;;16.16;96.76
38267;BME280;24063;51.794;19.578;2022-07-04T03:02:06;98661.94;;;16.15;96.82
38267;BME280;24063;51.794;19.578;2022-07-04T03:03:08;98661.30;;;16.15;96.87
38267;BME280;24063;51.794;19.578;2022-07-04T03:04:09;98659.00;;;16.14;96.85
38267;BME280;24063;51.794;19.578;2022-07-04T03:05:11;98660.59;;;16.15;96.91
38267;BME280;24063;51.794;19.578;2022-07-04T03:06:14;98659.88;;;16.13;96.88
38267;BME280;24063;51.794;19.578;2022-07-04T03:07:16;98658.40;;;16.13;96.81
38267;BME280;24063;51.794;19.578;2022-07-04T03:08:18;98659.60;;;16.12;96.85
38267;BME280;24063;51.794;19.578;2022-07-04T03:09:20;98661.66;;;16.11;96.83
38267;BME280;24063;51.794;19.578;2022-07-04T03:10:23;98659.50;;;16.10;96.93
38267;BME280;24063;51.794;19.578;2022-07-04T03:11:25;98658.24;;;16.10;97.01
38267;BME280;24063;51.794;19.578;2022-07-04T03:12:27;98657.57;;;16.11;97.05
38267;BME280;24063;51.794;19.578;2022-07-04T03:13:29;98659.99;;;16.12;97.23
38267;BME280;24063;51.794;19.578;2022-07-04T03:14:31;98658.44;;;16.14;97.15
38267;BME280;24063;51.794;19.578;2022-07-04T03:15:33;98659.88;;;16.15;97.04
38267;BME280;24063;51.794;19.578;2022-07-04T03:16:35;98663.67;;;16.16;97.00
38267;BME280;24063;51.794;19.578;2022-07-04T03:17:37;98659.48;;;16.16;96.82
38267;BME280;24063;51.794;19.578;2022-07-04T03:18:38;98664.16;;;16.16;96.84
38267;BME280;24063;51.794;19.578;2022-07-04T03:19:40;98660.50;;;16.16;96.85
38267;BME280;24063;51.794;19.578;2022-07-04T03:20:42;98658.48;;;16.16;96.85
38267;BME280;24063;51.794;19.578;2022-07-04T03:21:44;98659.26;;;16.18;96.87
38267;BME280;24063;51.794;19.578;2022-07-04T03:22:46;98657.23;;;16.18;96.70
38267;BME280;24063;51.794;19.578;2022-07-04T03:23:48;98658.63;;;16.19;96.74
38267;BME280;24063;51.794;19.578;2022-07-04T03:24:59;98656.33;;;16.21;96.65
38267;BME280;24063;51.794;19.578;2022-07-04T03:26:01;98653.64;;;16.22;96.56
38267;BME280;24063;51.794;19.578;2022-07-04T03:27:03;98651.96;;;16.24;96.77
38267;BME280;24063;51.794;19.578;2022-07-04T03:28:06;98648.45;;;16.27;96.68
38267;BME280;24063;51.794;19.578;2022-07-04T03:29:08;98653.36;;;16.29;96.50
38267;BME280;24063;51.794;19.578;2022-07-04T03:30:10;98652.46;;;16.30;96.37
38267;BME280;24063;51.794;19.578;2022-07-04T03:31:12;98650.98;;;16.31;96.35
38267;BME280;24063;51.794;19.578;2022-07-04T03:32:14;98654.73;;;16.33;96.21
38267;BME280;24063;51.794;19.578;2022-07-04T03:33:16;98651.22;;;16.34;96.19
38267;BME280;24063;51.794;19.578;2022-07-04T03:34:17;98650.87;;;16.35;96.15
38267;BME280;24063;51.794;19.578;2022-07-04T03:35:20;98647.73;;;16.35;96.28
38267;BME280;24063;51.794;19.578;2022-07-04T03:36:22;98647.16;;;16.37;96.13
38267;BME280;24063;51.794;19.578;2022-07-04T03:37:24;98652.29;;;16.39;96.04
38267;BME280;24063;51.794;19.578;2022-07-04T03:38:25;98650.83;;;16.40;96.04
38267;BME280;24063;51.794;19.578;2022-07-04T03:39:27;98652.33;;;16.42;95.77
38267;BME280;24063;51.794;19.578;2022-07-04T03:40:29;98655.56;;;16.43;95.89
38267;BME280;24063;51.794;19.578;2022-07-04T03:41:32;98653.23;;;16.45;95.87
38267;BME280;24063;51.794;19.578;2022-07-04T03:42:34;98652.19;;;16.47;95.45
38267;BME280;24063;51.794;19.578;2022-07-04T03:43:36;98656.39;;;16.47;95.35
38267;BME280;24063;51.794;19.578;2022-07-04T03:44:38;98656.64;;;16.48;95.28
38267;BME280;24063;51.794;19.578;2022-07-04T03:45:40;98661.21;;;16.49;95.33
38267;BME280;24063;51.794;19.578;2022-07-04T03:46:42;98663.97;;;16.49;95.35
38267;BME280;24063;51.794;19.578;2022-07-04T03:47:44;98662.13;;;16.50;95.19
38267;BME280;24063;51.794;19.578;2022-07-04T03:48:46;98667.46;;;16.52;95.20
38267;BME280;24063;51.794;19.578;2022-07-04T03:49:48;98663.34;;;16.52;94.96
38267;BME280;24063;51.794;19.578;2022-07-04T03:50:50;98665.05;;;16.52;94.94
38267;BME280;24063;51.794;19.578;2022-07-04T03:51:53;98668.33;;;16.52;95.03
38267;BME280;24063;51.794;19.578;2022-07-04T03:52:54;98673.62;;;16.52;94.99
38267;BME280;24063;51.794;19.578;2022-07-04T03:53:56;98673.27;;;16.53;95.04
38267;BME280;24063;51.794;19.578;2022-07-04T03:54:58;98674.40;;;16.53;95.05
38267;BME280;24063;51.794;19.578;2022-07-04T03:56:00;98672.89;;;16.54;94.87
38267;BME280;24063;51.794;19.578;2022-07-04T03:57:01;98674.70;;;16.55;94.90
38267;BME280;24063;51.794;19.578;2022-07-04T03:58:03;98672.48;;;16.56;94.88
38267;BME280;24063;51.794;19.578;2022-07-04T03:59:06;98672.88;;;16.57;94.91
38267;BME280;24063;51.794;19.578;2022-07-04T04:00:08;98673.80;;;16.60;95.01
38267;BME280;24063;51.794;19.578;2022-07-04T04:01:19;98671.65;;;16.63;94.68
38267;BME280;24063;51.794;19.578;2022-07-04T04:02:21;98670.44;;;16.64;94.28
38267;BME280;24063;51.794;19.578;2022-07-04T04:03:23;98676.00;;;16.64;94.29
38267;BME280;24063;51.794;19.578;2022-07-04T04:04:43;98680.23;;;16.64;94.17
38267;BME280;24063;51.794;19.578;2022-07-04T04:06:04;98679.38;;;16.64;94.07
38267;BME280;24063;51.794;19.578;2022-07-04T04:07:05;98679.95;;;16.65;94.07
38267;BME280;24063;51.794;19.578;2022-07-04T04:08:07;98683.38;;;16.65;94.08
38267;BME280;24063;51.794;19.578;2022-07-04T04:09:09;98684.89;;;16.66;93.99
38267;BME280;24063;51.794;19.578;2022-07-04T04:10:17;98686.77;;;16.67;93.89
38267;BME280;24063;51.794;19.578;2022-07-04T04:11:19;98684.43;;;16.69;93.91
38267;BME280;24063;51.794;19.578;2022-07-04T04:12:21;98687.88;;;16.70;93.82
38267;BME280;24063;51.794;19.578;2022-07-04T04:13:23;98691.33;;;16.72;93.65
38267;BME280;24063;51.794;19.578;2022-07-04T04:14:24;98686.38;;;16.73;93.30
38267;BME280;24063;51.794;19.578;2022-07-04T04:15:27;98686.92;;;16.73;93.18
38267;BME280;24063;51.794;19.578;2022-07-04T04:16:29;98684.95;;;16.76;93.45
38267;BME280;24063;51.794;19.578;2022-07-04T04:17:31;98685.77;;;16.78;93.77
38267;BME280;24063;51.794;19.578;2022-07-04T04:18:33;98683.50;;;16.81;93.32
38267;BME280;24063;51.794;19.578;2022-07-04T04:19:34;98686.73;;;16.83;93.09
38267;BME280;24063;51.794;19.578;2022-07-04T04:20:36;98685.52;;;16.84;92.65
38267;BME280;24063;51.794;19.578;2022-07-04T04:21:38;98687.27;;;16.83;92.60
38267;BME280;24063;51.794;19.578;2022-07-04T04:22:39;98685.36;;;16.83;92.61
38267;BME280;24063;51.794;19.578;2022-07-04T04:23:41;98684.82;;;16.83;92.87
38267;BME280;24063;51.794;19.578;2022-07-04T04:24:43;98687.77;;;16.84;92.82
38267;BME280;24063;51.794;19.578;2022-07-04T04:25:46;98685.52;;;16.84;92.71
38267;BME280;24063;51.794;19.578;2022-07-04T04:26:54;98681.69;;;16.85;92.68
38267;BME280;24063;51.794;19.578;2022-07-04T04:27:55;98679.89;;;16.85;92.84
38267;BME280;24063;51.794;19.578;2022-07-04T04:28:57;98680.05;;;16.85;92.63
38267;BME280;24063;51.794;19.578;2022-07-04T04:29:59;98675.71;;;16.86;92.74
38267;BME280;24063;51.794;19.578;2022-07-04T04:31:00;98679.02;;;16.86;92.52
38267;BME280;24063;51.794;19.578;2022-07-04T04:32:03;98681.81;;;16.88;92.58
38267;BME280;24063;51.794;19.578;2022-07-04T04:33:05;98684.02;;;16.89;92.50
38267;BME280;24063;51.794;19.578;2022-07-04T04:34:07;98683.44;;;16.90;92.36
38267;BME280;24063;51.794;19.578;2022-07-04T04:35:09;98680.80;;;16.91;92.37
38267;BME280;24063;51.794;19.578;2022-07-04T04:36:11;98682.58;;;16.92;92.49
38267;BME280;24063;51.794;19.578;2022-07-04T04:37:12;98680.60;;;16.93;92.35
38267;BME280;24063;51.794;19.578;2022-07-04T04:38:14;98675.71;;;16.93;92.28
38267;BME280;24063;51.794;19.578;2022-07-04T04:39:16;98676.62;;;16.96;92.74
38267;BME280;24063;51.794;19.578;2022-07-04T04:40:18;98675.25;;;16.99;92.42
38267;BME280;24063;51.794;19.578;2022-07-04T04:41:20;98673.91;;;17.02;92.41
38267;BME280;24063;51.794;19.578;2022-07-04T04:42:22;98674.66;;;17.04;92.58
38267;BME280;24063;51.794;19.578;2022-07-04T04:43:23;98673.31;;;17.07;92.63
38267;BME280;24063;51.794;19.578;2022-07-04T04:44:25;98672.65;;;17.09;92.08
38267;BME280;24063;51.794;19.578;2022-07-04T04:45:27;98669.89;;;17.12;92.03
38267;BME280;24063;51.794;19.578;2022-07-04T04:46:29;98666.59;;;17.15;91.99
38267;BME280;24063;51.794;19.578;2022-07-04T04:59:05;98664.58;;;17.50;90.64
38267;BME280;24063;51.794;19.578;2022-07-04T05:00:08;98665.30;;;17.61;90.00
38267;BME280;24063;51.794;19.578;2022-07-04T05:01:10;98663.80;;;17.67;89.81
38267;BME280;24063;51.794;19.578;2022-07-04T05:02:32;98660.17;;;17.75;89.53
38267;BME280;24063;51.794;19.578;2022-07-04T05:03:34;98663.99;;;17.81;89.37
38267;BME280;24063;51.794;19.578;2022-07-04T05:04:36;98661.98;;;17.86;88.64
38267;BME280;24063;51.794;19.578;2022-07-04T05:05:38;98662.73;;;17.90;88.57
38267;BME280;24063;51.794;19.578;2022-07-04T05:06:40;98663.41;;;17.93;88.28
38267;BME280;24063;51.794;19.578;2022-07-04T05:07:42;98661.71;;;17.97;88.01
38267;BME280;24063;51.794;19.578;2022-07-04T05:08:44;98654.73;;;18.01;87.82
38267;BME280;24063;51.794;19.578;2022-07-04T05:09:46;98652.50;;;18.06;87.91
38267;BME280;24063;51.794;19.578;2022-07-04T05:10:48;98649.86;;;18.09;87.64
38267;BME280;24063;51.794;19.578;2022-07-04T05:11:50;98652.71;;;18.14;88.00
38267;BME280;24063;51.794;19.578;2022-07-04T05:12:51;98653.61;;;18.19;88.18
38267;BME280;24063;51.794;19.578;2022-07-04T05:13:53;98654.70;;;18.24;87.32
38267;BME280;24063;51.794;19.578;2022-07-04T05:14:55;98658.77;;;18.28;86.97
38267;BME280;24063;51.794;19.578;2022-07-04T05:15:57;98657.58;;;18.33;86.85
38267;BME280;24063;51.794;19.578;2022-07-04T05:16:59;98659.98;;;18.38;86.85
38267;BME280;24063;51.794;19.578;2022-07-04T05:18:01;98656.13;;;18.43;86.70
38267;BME280;24063;51.794;19.578;2022-07-04T05:19:02;98660.50;;;18.48;86.38
38267;BME280;24063;51.794;19.578;2022-07-04T05:20:05;98657.85;;;18.54;86.34
38267;BME280;24063;51.794;19.578;2022-07-04T05:21:07;98657.45;;;18.59;85.81
38267;BME280;24063;51.794;19.578;2022-07-04T05:22:08;98665.27;;;18.64;85.80
38267;BME280;24063;51.794;19.578;2022-07-04T05:23:12;98665.48;;;18.70;85.69
38267;BME280;24063;51.794;19.578;2022-07-04T05:24:13;98666.33;;;18.75;85.31
38267;BME280;24063;51.794;19.578;2022-07-04T05:25:15;98665.70;;;18.81;84.99
38267;BME280;24063;51.794;19.578;2022-07-04T05:26:17;98662.14;;;18.85;83.69
38267;BME280;24063;51.794;19.578;2022-07-04T05:27:19;98657.76;;;18.89;83.90
38267;BME280;24063;51.794;19.578;2022-07-04T05:28:21;98655.98;;;18.96;84.02
38267;BME280;24063;51.794;19.578;2022-07-04T05:29:22;98653.00;;;19.01;83.60
38267;BME280;24063;51.794;19.578;2022-07-04T05:30:25;98654.90;;;19.06;83.20
38267;BME280;24063;51.794;19.578;2022-07-04T05:31:27;98657.73;;;19.10;82.89
38267;BME280;24063;51.794;19.578;2022-07-04T05:32:29;98657.95;;;19.14;82.77
38267;BME280;24063;51.794;19.578;2022-07-04T05:33:30;98656.97;;;19.18;82.72
38267;BME280;24063;51.794;19.578;2022-07-04T05:34:32;98656.05;;;19.22;82.13
38267;BME280;24063;51.794;19.578;2022-07-04T05:35:34;98656.55;;;19.28;82.06
38267;BME280;24063;51.794;19.578;2022-07-04T05:36:37;98656.77;;;19.35;82.12
38267;BME280;24063;51.794;19.578;2022-07-04T05:37:39;98657.02;;;19.42;81.91
38267;BME280;24063;51.794;19.578;2022-07-04T05:38:41;98661.11;;;19.48;81.50